createdAt,value
2019-05-17T00:02:33.148Z,93.74
2019-05-17T00:05:38.247Z,95.12
2019-05-17T00:08:43.453Z,93.51
2019-05-17T00:11:48.530Z,93.03
2019-05-17T00:14:53.696Z,94.33
2019-05-17T00:17:58.769Z,95.50
2019-05-17T00:21:04.081Z,96.47
2019-05-17T00:24:09.382Z,96.55
2019-05-17T00:27:14.621Z,96.67
2019-05-17T00:30:20.411Z,96.95
2019-05-17T00:33:27.248Z,96.88
2019-05-17T00:36:33.693Z,97.13
2019-05-17T00:39:38.860Z,96.09
2019-05-17T00:42:46.428Z,96.57
2019-05-17T00:45:50.846Z,97.44
2019-05-17T00:48:57.319Z,97.36
2019-05-17T00:52:02.574Z,97.55
2019-05-17T00:55:08.076Z,97.47
2019-05-17T00:58:13.335Z,97.79
2019-05-17T01:01:18.546Z,97.23
2019-05-17T01:04:23.709Z,97.91
2019-05-17T01:07:28.931Z,97.60
2019-05-17T01:10:34.071Z,97.13
2019-05-17T01:13:39.382Z,97.75
2019-05-17T01:16:44.543Z,97.85
2019-05-17T01:19:50.785Z,97.53
2019-05-17T01:22:56.664Z,97.61
2019-05-17T01:26:02.023Z,98.19
2019-05-17T01:29:07.300Z,98.31
2019-05-17T01:32:12.557Z,98.23
2019-05-17T01:35:17.736Z,98.05
2019-05-17T01:38:22.879Z,98.17
2019-05-17T01:41:28.030Z,98.65
2019-05-17T01:44:33.171Z,99.11
2019-05-17T01:47:38.350Z,99.01
2019-05-17T01:50:43.506Z,98.07
2019-05-17T01:53:48.715Z,98.62
2019-05-17T01:56:53.860Z,98.74
2019-05-17T01:59:59.019Z,99.32
2019-05-17T02:03:06.786Z,99.37
2019-05-17T02:06:11.135Z,99.42
2019-05-17T02:09:32.304Z,99.13
2019-05-17T02:12:23.182Z,99.15
2019-05-17T02:15:28.311Z,99.84
2019-05-17T02:18:33.545Z,100.00
2019-05-17T02:21:39.084Z,99.25
2019-05-17T02:24:46.448Z,98.94
2019-05-17T02:27:52.682Z,99.19
2019-05-17T02:30:58.339Z,99.53
2019-05-17T02:34:03.962Z,99.89
2019-05-17T02:37:09.163Z,99.30
2019-05-17T02:40:15.263Z,99.34
2019-05-17T02:43:23.345Z,99.55
2019-05-17T02:46:27.591Z,98.98
2019-05-17T02:49:33.272Z,99.39
2019-05-17T02:52:38.498Z,99.06
2019-05-17T02:55:43.746Z,99.64
2019-05-17T02:58:48.896Z,99.42
2019-05-17T03:01:54.058Z,100.00
2019-05-17T03:04:59.202Z,100.00
2019-05-17T03:08:04.770Z,99.18
2019-05-17T03:11:13.480Z,99.05
2019-05-17T03:14:22.983Z,99.04
2019-05-17T03:17:28.315Z,99.10
2019-05-17T03:20:33.612Z,99.28
2019-05-17T03:23:38.793Z,99.49
2019-05-17T03:26:44.006Z,99.66
2019-05-17T03:29:49.186Z,99.36
2019-05-17T03:32:56.739Z,99.37
2019-05-17T03:36:06.554Z,99.28
2019-05-17T03:39:09.265Z,98.55
2019-05-17T03:42:14.494Z,98.87
2019-05-17T03:45:22.568Z,98.81
2019-05-17T03:48:26.572Z,98.86
2019-05-17T03:51:33.257Z,99.21
2019-05-17T03:54:38.670Z,99.33
2019-05-17T03:57:44.488Z,99.58
2019-05-17T04:00:49.668Z,99.47
2019-05-17T04:03:54.794Z,99.02
2019-05-17T04:07:03.147Z,98.76
2019-05-17T04:10:07.892Z,98.32
2019-05-17T04:13:13.214Z,98.27
2019-05-17T04:16:18.467Z,97.95
2019-05-17T04:19:23.626Z,97.01
2019-05-17T04:22:28.784Z,96.42
2019-05-17T04:25:34.105Z,96.46
2019-05-17T04:28:39.246Z,96.60
2019-05-17T04:31:44.613Z,96.92
2019-05-17T04:34:52.399Z,97.20
2019-05-17T04:37:57.302Z,96.15
2019-05-17T04:41:03.478Z,96.38
2019-05-17T04:44:08.784Z,96.33
2019-05-17T04:47:14.053Z,95.28
2019-05-17T04:50:19.186Z,94.01
2019-05-17T04:53:24.363Z,95.15
2019-05-17T04:56:29.451Z,95.41
2019-05-17T04:59:34.660Z,95.25
2019-05-17T05:02:39.881Z,94.83
2019-05-17T05:05:45.032Z,94.35
2019-05-17T05:08:52.797Z,94.57
2019-05-17T05:12:04.816Z,94.75
2019-05-17T05:15:04.166Z,93.97
2019-05-17T05:18:12.896Z,95.42
2019-05-17T05:21:16.542Z,95.36
2019-05-17T05:24:22.350Z,94.65
2019-05-17T05:27:28.657Z,94.91
2019-05-17T05:30:33.856Z,93.83
2019-05-17T05:33:38.929Z,93.78
2019-05-17T05:36:44.205Z,94.07
2019-05-17T05:39:51.733Z,94.76
2019-05-17T05:42:56.142Z,94.48
2019-05-17T05:46:02.560Z,95.24
2019-05-17T05:49:08.048Z,96.08
2019-05-17T05:52:13.366Z,96.16
2019-05-17T05:55:19.529Z,94.44
2019-05-17T05:58:24.723Z,94.96
2019-05-17T06:01:32.407Z,94.66
2019-05-17T06:04:36.691Z,94.66
2019-05-17T06:07:42.162Z,95.53
2019-05-17T06:10:47.318Z,95.05
2019-05-17T06:13:52.496Z,94.77
2019-05-17T06:16:57.768Z,93.81
2019-05-17T06:20:03.104Z,92.74
2019-05-17T06:23:08.390Z,91.16
2019-05-17T06:26:13.616Z,90.36
2019-05-17T06:29:18.748Z,90.11
2019-05-17T06:32:23.964Z,91.89
2019-05-17T06:35:32.361Z,92.06
2019-05-17T06:38:37.073Z,93.07
2019-05-17T06:41:42.168Z,92.92
2019-05-17T06:44:47.363Z,92.27
2019-05-17T06:47:52.496Z,92.59
2019-05-17T06:50:57.679Z,92.45
2019-05-17T06:54:02.811Z,91.60
2019-05-17T06:57:12.779Z,91.66
2019-05-17T07:00:20.893Z,91.40
2019-05-17T07:03:24.677Z,90.66
2019-05-17T07:06:34.466Z,88.34
2019-05-17T07:09:40.120Z,88.88
2019-05-17T07:12:55.937Z,89.00
2019-05-17T07:15:52.374Z,88.99
2019-05-17T07:18:59.611Z,86.76
2019-05-17T07:22:05.284Z,86.20
2019-05-17T07:25:11.878Z,86.30
2019-05-17T07:28:17.153Z,85.58
2019-05-17T07:31:23.211Z,86.30
2019-05-17T07:34:30.889Z,86.29
2019-05-17T07:37:35.580Z,83.56
2019-05-17T07:40:40.724Z,82.64
2019-05-17T07:43:45.884Z,84.56
2019-05-17T07:46:51.845Z,83.04
2019-05-17T07:49:57.173Z,83.99
2019-05-17T07:53:02.340Z,82.82
2019-05-17T07:56:10.097Z,84.06
2019-05-17T07:59:14.662Z,85.92
2019-05-17T08:02:19.939Z,85.24
2019-05-17T08:05:26.219Z,84.39
2019-05-17T08:08:31.562Z,82.62
2019-05-17T08:11:36.681Z,79.35
2019-05-17T08:14:41.912Z,77.70
2019-05-17T08:17:47.100Z,77.87
2019-05-17T08:20:52.229Z,76.63
2019-05-17T08:23:59.878Z,77.96
2019-05-17T08:27:04.347Z,77.52
2019-05-17T08:30:10.764Z,78.76
2019-05-17T08:33:16.047Z,76.52
2019-05-17T08:36:21.371Z,77.30
2019-05-17T08:39:26.594Z,80.23
2019-05-17T08:42:31.714Z,79.44
2019-05-17T08:45:37.125Z,74.71
2019-05-17T08:48:42.277Z,75.27
2019-05-17T08:51:49.939Z,73.63
2019-05-17T08:54:54.464Z,72.07
2019-05-17T08:58:01.038Z,71.43
2019-05-17T09:01:06.311Z,72.69
2019-05-17T09:04:11.649Z,74.14
2019-05-17T09:07:16.807Z,70.44
2019-05-17T09:10:23.542Z,72.27
2019-05-17T09:13:29.838Z,70.95
2019-05-17T09:16:35.157Z,67.68
2019-05-17T09:19:40.254Z,65.62
2019-05-17T09:22:45.569Z,67.80
2019-05-17T09:25:50.661Z,68.89
2019-05-17T09:28:55.846Z,70.20
2019-05-17T09:32:00.896Z,68.65
2019-05-17T09:35:06.362Z,63.60
2019-05-17T09:38:11.525Z,63.72
2019-05-17T09:41:16.769Z,66.30
2019-05-17T09:44:22.163Z,66.69
2019-05-17T09:47:29.939Z,66.87
2019-05-17T09:50:34.318Z,65.73
2019-05-17T09:53:40.114Z,62.54
2019-05-17T09:56:45.336Z,61.81
2019-05-17T09:59:50.525Z,62.28
2019-05-17T10:02:56.247Z,60.82
2019-05-17T10:06:01.654Z,57.61
2019-05-17T10:09:09.444Z,62.52
2019-05-17T10:12:13.935Z,63.68
2019-05-17T10:15:20.667Z,63.24
2019-05-17T10:18:26.098Z,62.07
2019-05-17T10:21:31.337Z,62.00
2019-05-17T10:24:41.584Z,64.53
2019-05-17T10:27:44.085Z,65.78
2019-05-17T10:30:52.200Z,66.36
2019-05-17T10:33:58.329Z,66.56
2019-05-17T10:37:03.447Z,63.03
2019-05-17T10:40:10.746Z,61.56
2019-05-17T10:43:16.090Z,61.21
2019-05-17T10:46:21.193Z,63.05
2019-05-17T10:49:26.468Z,63.66
2019-05-17T10:52:31.973Z,61.20
2019-05-17T10:55:39.483Z,62.66
2019-05-17T10:58:44.194Z,60.10
2019-05-17T11:01:50.188Z,60.96
2019-05-17T11:04:56.640Z,59.28
2019-05-17T11:08:01.768Z,59.60
2019-05-17T11:11:07.320Z,60.96
2019-05-17T11:14:12.520Z,61.07
2019-05-17T11:17:17.724Z,61.35
2019-05-17T11:20:23.565Z,59.20
2019-05-17T11:23:28.821Z,55.77
2019-05-17T11:26:33.968Z,54.23
2019-05-17T11:29:39.127Z,54.63
2019-05-17T11:32:44.503Z,55.10
2019-05-17T11:35:49.731Z,54.03
2019-05-17T11:38:54.948Z,56.01
2019-05-17T11:42:00.115Z,53.18
2019-05-17T11:45:05.647Z,52.56
2019-05-17T11:48:10.889Z,52.50
2019-05-17T11:51:16.051Z,53.14
2019-05-17T11:54:21.249Z,53.58
2019-05-17T11:57:26.392Z,54.35
2019-05-17T12:00:31.654Z,53.19
2019-05-17T12:03:36.833Z,52.75
2019-05-17T12:06:42.053Z,53.15
2019-05-17T12:09:47.246Z,53.52
2019-05-17T12:12:52.515Z,51.18
2019-05-17T12:15:57.687Z,51.91
2019-05-17T12:19:02.919Z,51.61
2019-05-17T12:22:08.028Z,53.00
2019-05-17T12:25:13.668Z,52.11
2019-05-17T12:28:18.857Z,50.92
2019-05-17T12:31:24.100Z,50.67
2019-05-17T12:34:29.246Z,48.84
2019-05-17T12:37:34.557Z,48.84
2019-05-17T12:40:39.769Z,50.01
2019-05-17T12:43:44.903Z,51.98
2019-05-17T12:46:50.123Z,51.98
2019-05-17T12:49:55.477Z,52.50
2019-05-17T12:53:00.672Z,51.58
2019-05-17T12:56:05.858Z,51.38
2019-05-17T12:59:11.177Z,51.49
2019-05-17T13:02:16.266Z,52.62
2019-05-17T13:05:21.441Z,52.61
2019-05-17T13:08:26.620Z,51.39
2019-05-17T13:11:31.793Z,51.36
2019-05-17T13:14:36.957Z,51.45
2019-05-17T13:17:42.209Z,51.36
2019-05-17T13:20:47.457Z,51.02
2019-05-17T13:23:52.606Z,51.78
2019-05-17T13:26:57.819Z,52.14
2019-05-17T13:30:02.993Z,51.87
2019-05-17T13:33:08.237Z,52.59
2019-05-17T13:36:13.492Z,48.97
2019-05-17T13:39:18.699Z,49.85
2019-05-17T13:42:23.928Z,48.23
2019-05-17T13:45:29.095Z,48.75
2019-05-17T13:48:34.281Z,48.75
2019-05-17T13:51:39.455Z,48.78
2019-05-17T13:54:44.610Z,47.97
2019-05-17T13:57:49.849Z,46.38
2019-05-17T14:00:54.992Z,46.96
2019-05-17T14:04:00.262Z,45.64
2019-05-17T14:07:05.397Z,47.40
2019-05-17T14:10:26.236Z,46.48
2019-05-17T14:13:17.702Z,45.41
2019-05-17T14:16:22.797Z,46.24
2019-05-17T14:19:28.041Z,44.75
2019-05-17T14:22:35.906Z,44.81
2019-05-17T14:25:40.166Z,46.45
2019-05-17T14:28:45.318Z,49.41
2019-05-17T14:31:50.700Z,47.66
2019-05-17T14:34:55.830Z,47.66
2019-05-17T14:38:01.000Z,47.39
2019-05-17T14:41:08.309Z,45.74
2019-05-17T14:44:13.060Z,46.09
2019-05-17T14:47:18.265Z,45.40
2019-05-17T14:50:23.476Z,45.48
2019-05-17T14:53:28.600Z,46.25
2019-05-17T14:56:33.758Z,47.05
2019-05-17T14:59:38.924Z,46.16
2019-05-17T15:02:45.174Z,47.57
2019-05-17T15:05:50.455Z,47.52
2019-05-17T15:08:55.715Z,47.52
2019-05-17T15:12:00.938Z,48.46
2019-05-17T15:15:06.925Z,49.82
2019-05-17T15:18:12.269Z,48.76
2019-05-17T15:21:17.852Z,47.42
2019-05-17T15:24:23.060Z,47.66
2019-05-17T15:27:28.191Z,46.50
2019-05-17T15:30:33.304Z,45.38
2019-05-17T15:33:38.448Z,44.34
2019-05-17T15:36:43.641Z,46.16
2019-05-17T15:39:48.800Z,45.91
2019-05-17T15:42:54.054Z,47.12
2019-05-17T15:45:59.339Z,46.71
2019-05-17T15:49:04.507Z,46.62
2019-05-17T15:52:09.754Z,46.65
2019-05-17T15:55:15.386Z,46.74
2019-05-17T15:58:23.197Z,46.17
2019-05-17T16:01:29.270Z,46.01
2019-05-17T16:04:34.547Z,45.38
2019-05-17T16:07:39.710Z,46.63
2019-05-17T16:10:44.888Z,45.97
2019-05-17T16:13:50.101Z,47.21
2019-05-17T16:16:55.258Z,47.12
2019-05-17T16:20:00.408Z,47.43
2019-05-17T16:23:05.571Z,47.74
2019-05-17T16:26:10.952Z,46.37
2019-05-17T16:29:16.194Z,46.86
2019-05-17T16:32:21.456Z,45.14
2019-05-17T16:35:26.709Z,45.65
2019-05-17T16:38:31.878Z,46.18
2019-05-17T16:41:37.123Z,44.58
2019-05-17T16:44:42.352Z,46.66
2019-05-17T16:47:47.465Z,45.32
2019-05-17T16:50:52.639Z,44.37
2019-05-17T16:53:57.801Z,43.09
2019-05-17T16:57:02.945Z,42.83
2019-05-17T17:00:24.633Z,43.96
2019-05-17T17:03:43.831Z,44.69
2019-05-17T17:06:36.716Z,44.88
2019-05-17T17:09:42.305Z,43.84
2019-05-17T17:12:47.693Z,42.65
2019-05-17T17:15:52.851Z,41.26
2019-05-17T17:18:58.019Z,43.16
2019-05-17T17:22:03.200Z,43.00
2019-05-17T17:25:08.560Z,44.31
2019-05-17T17:28:13.846Z,46.23
2019-05-17T17:31:18.970Z,46.14
2019-05-17T17:34:24.140Z,48.51
2019-05-17T17:37:29.358Z,50.29
2019-05-17T17:40:34.556Z,50.96
2019-05-17T17:43:39.779Z,52.51
2019-05-17T17:46:44.936Z,52.99
2019-05-17T17:49:50.147Z,54.41
2019-05-17T17:52:55.289Z,55.17
2019-05-17T17:56:00.517Z,56.39
2019-05-17T17:59:05.783Z,56.94
2019-05-17T18:02:11.098Z,56.58
2019-05-17T18:05:16.830Z,56.95
2019-05-17T18:08:22.209Z,57.36
2019-05-17T18:11:27.340Z,57.83
2019-05-17T18:14:32.540Z,58.32
2019-05-17T18:17:39.478Z,58.42
2019-05-17T18:20:44.647Z,58.87
2019-05-17T18:23:49.975Z,62.63
2019-05-17T18:26:56.650Z,63.28
2019-05-17T18:30:01.970Z,65.12
2019-05-17T18:33:07.672Z,64.91
2019-05-17T18:36:13.622Z,64.80
2019-05-17T18:39:18.969Z,66.43
2019-05-17T18:42:24.435Z,67.69
2019-05-17T18:45:30.167Z,67.43
2019-05-17T18:48:35.548Z,69.51
2019-05-17T18:51:40.726Z,69.71
2019-05-17T18:54:46.100Z,70.33
2019-05-17T18:57:51.299Z,70.08
2019-05-17T19:00:56.437Z,68.27
2019-05-17T19:04:01.718Z,69.25
2019-05-17T19:07:06.877Z,70.87
2019-05-17T19:10:12.695Z,71.20
2019-05-17T19:13:18.066Z,71.97
2019-05-17T19:16:23.213Z,74.29
2019-05-17T19:19:28.451Z,73.55
2019-05-17T19:22:33.663Z,71.88
2019-05-17T19:25:38.831Z,68.30
2019-05-17T19:28:44.016Z,71.39
2019-05-17T19:31:49.197Z,76.36
2019-05-17T19:34:54.484Z,80.33
2019-05-17T19:37:59.849Z,79.87
2019-05-17T19:41:04.968Z,81.07
2019-05-17T19:44:10.280Z,84.04
2019-05-17T19:47:15.429Z,86.41
2019-05-17T19:50:20.737Z,85.49
2019-05-17T19:53:26.838Z,84.23
2019-05-17T19:56:31.973Z,86.07
2019-05-17T19:59:37.148Z,84.84
2019-05-17T20:02:42.265Z,83.95
2019-05-17T20:05:47.501Z,83.86
2019-05-17T20:08:53.266Z,83.19
2019-05-17T20:11:58.449Z,84.27
2019-05-17T20:15:16.918Z,84.20
2019-05-17T20:18:11.939Z,85.24
2019-05-17T20:21:17.151Z,85.77
2019-05-17T20:24:22.448Z,86.21
2019-05-17T20:27:27.716Z,88.84
2019-05-17T20:30:32.878Z,90.56
2019-05-17T20:33:38.024Z,92.68
2019-05-17T20:36:43.284Z,93.17
2019-05-17T20:39:48.482Z,93.17
2019-05-17T20:42:53.623Z,92.50
2019-05-17T20:45:58.821Z,92.80
2019-05-17T20:49:03.978Z,92.80
2019-05-17T20:52:09.375Z,93.14
2019-05-17T20:55:14.709Z,94.16
2019-05-17T20:58:19.850Z,93.71
2019-05-17T21:01:25.009Z,94.37
2019-05-17T21:04:30.204Z,95.96
2019-05-17T21:07:35.432Z,95.95
2019-05-17T21:10:40.765Z,94.30
2019-05-17T21:13:45.956Z,95.03
2019-05-17T21:16:51.221Z,96.34
2019-05-17T21:19:56.340Z,97.01
2019-05-17T21:23:01.528Z,97.78
2019-05-17T21:26:06.715Z,96.29
2019-05-17T21:29:11.903Z,97.60
2019-05-17T21:32:17.096Z,97.14
2019-05-17T21:35:22.233Z,97.07
2019-05-17T21:38:27.402Z,98.49
2019-05-17T21:41:32.645Z,99.49
2019-05-17T21:44:37.781Z,100.00
2019-05-17T21:47:43.021Z,99.57
2019-05-17T21:50:48.167Z,100.00
2019-05-17T21:53:53.317Z,100.00
2019-05-17T21:56:58.426Z,100.00
2019-05-17T22:00:03.839Z,100.00
2019-05-17T22:03:10.618Z,100.00
2019-05-17T22:06:16.167Z,100.00
2019-05-17T22:09:21.303Z,100.00
2019-05-17T22:12:26.521Z,100.00
2019-05-17T22:15:31.673Z,100.00
2019-05-17T22:18:37.050Z,100.00
2019-05-17T22:21:42.150Z,100.00
2019-05-17T22:24:47.402Z,100.00
2019-05-17T22:27:52.508Z,100.00
2019-05-17T22:30:57.734Z,100.00
2019-05-17T22:34:02.916Z,100.00
2019-05-17T22:37:09.219Z,100.00
2019-05-17T22:40:14.462Z,100.00
2019-05-17T22:43:19.689Z,100.00
2019-05-17T22:46:35.619Z,100.00
2019-05-17T22:49:31.714Z,100.00
2019-05-17T22:52:36.879Z,100.00
2019-05-17T22:55:42.037Z,100.00
2019-05-17T22:58:47.174Z,100.00
2019-05-17T23:01:52.329Z,100.00
2019-05-17T23:04:57.549Z,100.00
2019-05-17T23:08:02.788Z,100.00
2019-05-17T23:11:08.118Z,100.00
2019-05-17T23:14:13.271Z,100.00
2019-05-17T23:17:18.388Z,100.00
2019-05-17T23:20:23.729Z,100.00
2019-05-17T23:23:28.891Z,100.00
2019-05-17T23:26:34.083Z,100.00
2019-05-17T23:29:41.181Z,100.00
2019-05-17T23:32:45.993Z,100.00
2019-05-17T23:35:51.229Z,100.00
2019-05-17T23:38:56.365Z,100.00
2019-05-17T23:42:01.590Z,100.00
2019-05-17T23:45:07.608Z,100.00
2019-05-17T23:48:12.793Z,100.00
2019-05-17T23:51:17.975Z,100.00
2019-05-17T23:54:23.149Z,100.00
2019-05-17T23:57:28.314Z,100.00
